sensor_id;sensor_type;location;lat;lon;timestamp;pressure;altitude;pressure_sealevel;temperature;humidity
51053;BME280;37093;37.716;-122.060;2023-04-03T00:01:04;100211.82;;;13.50;44.66
51053;BME280;37093;37.716;-122.060;2023-04-03T00:03:34;100212.39;;;13.58;43.56
51053;BME280;37093;37.716;-122.060;2023-04-03T00:06:03;100213.12;;;14.62;40.92
51053;BME280;37093;37.716;-122.060;2023-04-03T00:08:32;100203.51;;;14.63;41.10
51053;BME280;37093;37.716;-122.060;2023-04-03T00:11:02;100204.58;;;14.01;43.67
51053;BME280;37093;37.716;-122.060;2023-04-03T00:13:31;100200.03;;;13.87;43.66
51053;BME280;37093;37.716;-122.060;2023-04-03T00:16:00;100206.92;;;13.73;42.77
51053;BME280;37093;37.716;-122.060;2023-04-03T00:18:28;100200.21;;;12.89;43.83
51053;BME280;37093;37.716;-122.060;2023-04-03T00:20:57;100198.69;;;13.24;43.16
51053;BME280;37093;37.716;-122.060;2023-04-03T00:23:26;100197.19;;;13.10;43.29
51053;BME280;37093;37.716;-122.060;2023-04-03T00:25:54;100192.28;;;13.38;43.11
51053;BME280;37093;37.716;-122.060;2023-04-03T00:28:23;100193.06;;;13.43;43.05
51053;BME280;37093;37.716;-122.060;2023-04-03T00:30:52;100193.76;;;13.86;40.96
51053;BME280;37093;37.716;-122.060;2023-04-03T00:33:20;100195.86;;;13.63;41.44
51053;BME280;37093;37.716;-122.060;2023-04-03T00:35:49;100200.71;;;12.84;41.93
51053;BME280;37093;37.716;-122.060;2023-04-03T00:38:19;100190.44;;;12.87;41.94
51053;BME280;37093;37.716;-122.060;2023-04-03T00:40:48;100184.44;;;12.67;42.38
51053;BME280;37093;37.716;-122.060;2023-04-03T00:43:19;100173.53;;;12.42;44.08
51053;BME280;37093;37.716;-122.060;2023-04-03T00:45:49;100177.45;;;12.46;44.09
51053;BME280;37093;37.716;-122.060;2023-04-03T00:48:21;100174.01;;;12.99;43.33
51053;BME280;37093;37.716;-122.060;2023-04-03T00:50:51;100168.16;;;12.45;44.76
51053;BME280;37093;37.716;-122.060;2023-04-03T00:53:25;100169.17;;;12.83;45.12
51053;BME280;37093;37.716;-122.060;2023-04-03T00:55:55;100167.92;;;12.54;46.24
51053;BME280;37093;37.716;-122.060;2023-04-03T00:58:28;100170.65;;;12.87;46.08
51053;BME280;37093;37.716;-122.060;2023-04-03T01:01:05;100173.02;;;12.85;46.05
51053;BME280;37093;37.716;-122.060;2023-04-03T01:03:35;100176.50;;;12.30;47.28
51053;BME280;37093;37.716;-122.060;2023-04-03T01:06:04;100174.07;;;11.97;48.59
51053;BME280;37093;37.716;-122.060;2023-04-03T01:08:33;100176.30;;;11.34;51.26
51053;BME280;37093;37.716;-122.060;2023-04-03T01:11:02;100181.11;;;11.58;50.74
51053;BME280;37093;37.716;-122.060;2023-04-03T01:13:32;100178.61;;;12.00;50.26
51053;BME280;37093;37.716;-122.060;2023-04-03T01:16:02;100179.75;;;11.81;50.93
51053;BME280;37093;37.716;-122.060;2023-04-03T01:18:32;100176.89;;;11.62;50.96
51053;BME280;37093;37.716;-122.060;2023-04-03T01:21:29;100167.74;;;12.12;50.79
51053;BME280;37093;37.716;-122.060;2023-04-03T01:24:18;100166.53;;;12.34;50.83
51053;BME280;37093;37.716;-122.060;2023-04-03T01:26:50;100168.25;;;10.78;52.46
51053;BME280;37093;37.716;-122.060;2023-04-03T01:29:19;100176.00;;;10.86;52.62
51053;BME280;37093;37.716;-122.060;2023-04-03T01:31:51;100173.74;;;10.71;52.75
51053;BME280;37093;37.716;-122.060;2023-04-03T01:34:20;100172.30;;;10.81;51.63
51053;BME280;37093;37.716;-122.060;2023-04-03T01:36:49;100174.67;;;11.31;49.54
51053;BME280;37093;37.716;-122.060;2023-04-03T01:39:18;100170.37;;;11.32;50.89
51053;BME280;37093;37.716;-122.060;2023-04-03T01:41:48;100172.10;;;11.63;49.51
51053;BME280;37093;37.716;-122.060;2023-04-03T01:44:16;100172.35;;;11.52;48.47
51053;BME280;37093;37.716;-122.060;2023-04-03T01:46:44;100169.03;;;11.81;48.33
51053;BME280;37093;37.716;-122.060;2023-04-03T01:49:13;100176.38;;;11.34;48.71
51053;BME280;37093;37.716;-122.060;2023-04-03T01:51:41;100172.88;;;11.67;47.72
51053;BME280;37093;37.716;-122.060;2023-04-03T01:54:10;100168.49;;;12.01;46.88
51053;BME280;37093;37.716;-122.060;2023-04-03T01:56:38;100164.70;;;12.18;47.50
51053;BME280;37093;37.716;-122.060;2023-04-03T01:59:07;100164.91;;;12.09;47.61
51053;BME280;37093;37.716;-122.060;2023-04-03T02:01:36;100161.89;;;12.73;45.46
51053;BME280;37093;37.716;-122.060;2023-04-03T02:04:04;100165.50;;;12.01;47.78
51053;BME280;37093;37.716;-122.060;2023-04-03T02:06:33;100159.97;;;12.00;47.27
51053;BME280;37093;37.716;-122.060;2023-04-03T02:09:01;100159.23;;;12.03;47.21
51053;BME280;37093;37.716;-122.060;2023-04-03T02:11:31;100155.67;;;12.19;47.43
51053;BME280;37093;37.716;-122.060;2023-04-03T02:13:59;100154.70;;;11.70;48.47
51053;BME280;37093;37.716;-122.060;2023-04-03T02:16:28;100153.16;;;12.17;47.02
51053;BME280;37093;37.716;-122.060;2023-04-03T02:18:56;100148.76;;;12.27;47.32
51053;BME280;37093;37.716;-122.060;2023-04-03T02:21:25;100148.96;;;12.38;47.54
51053;BME280;37093;37.716;-122.060;2023-04-03T02:23:54;100144.46;;;12.57;46.72
51053;BME280;37093;37.716;-122.060;2023-04-03T02:26:22;100143.22;;;12.38;47.81
51053;BME280;37093;37.716;-122.060;2023-04-03T02:28:51;100143.59;;;12.56;46.91
51053;BME280;37093;37.716;-122.060;2023-04-03T02:31:19;100143.02;;;12.43;46.76
51053;BME280;37093;37.716;-122.060;2023-04-03T02:33:48;100136.37;;;12.27;47.82
51053;BME280;37093;37.716;-122.060;2023-04-03T02:36:16;100142.19;;;12.11;48.98
51053;BME280;37093;37.716;-122.060;2023-04-03T02:38:45;100138.80;;;12.58;46.83
51053;BME280;37093;37.716;-122.060;2023-04-03T02:41:13;100143.19;;;11.56;50.11
51053;BME280;37093;37.716;-122.060;2023-04-03T02:43:42;100136.28;;;11.48;50.39
51053;BME280;37093;37.716;-122.060;2023-04-03T02:46:11;100139.82;;;10.61;52.08
51053;BME280;37093;37.716;-122.060;2023-04-03T02:48:39;100147.35;;;11.29;51.46
51053;BME280;37093;37.716;-122.060;2023-04-03T02:51:08;100146.62;;;11.33;51.63
51053;BME280;37093;37.716;-122.060;2023-04-03T02:53:36;100150.15;;;11.22;51.47
51053;BME280;37093;37.716;-122.060;2023-04-03T02:56:05;100144.54;;;11.32;51.27
51053;BME280;37093;37.716;-122.060;2023-04-03T02:58:34;100141.60;;;12.00;48.85
51053;BME280;37093;37.716;-122.060;2023-04-03T03:01:02;100138.47;;;11.78;48.82
51053;BME280;37093;37.716;-122.060;2023-04-03T03:03:31;100147.40;;;11.69;48.79
51053;BME280;37093;37.716;-122.060;2023-04-03T03:06:04;100146.20;;;11.84;49.02
51053;BME280;37093;37.716;-122.060;2023-04-03T03:08:32;100151.71;;;11.38;50.11
51053;BME280;37093;37.716;-122.060;2023-04-03T03:11:01;100152.48;;;11.21;49.99
51053;BME280;37093;37.716;-122.060;2023-04-03T03:13:32;100154.12;;;11.32;50.37
51053;BME280;37093;37.716;-122.060;2023-04-03T03:16:01;100150.67;;;10.99;51.83
51053;BME280;37093;37.716;-122.060;2023-04-03T03:18:30;100149.62;;;10.27;54.13
51053;BME280;37093;37.716;-122.060;2023-04-03T03:21:01;100137.47;;;11.83;50.23
51053;BME280;37093;37.716;-122.060;2023-04-03T03:23:31;100141.36;;;11.85;50.24
51053;BME280;37093;37.716;-122.060;2023-04-03T03:26:02;100141.61;;;11.92;50.13
51053;BME280;37093;37.716;-122.060;2023-04-03T03:28:31;100140.17;;;11.50;50.20
51053;BME280;37093;37.716;-122.060;2023-04-03T03:31:00;100150.80;;;11.36;51.27
51053;BME280;37093;37.716;-122.060;2023-04-03T03:33:28;100150.80;;;10.95;53.85
51053;BME280;37093;37.716;-122.060;2023-04-03T03:35:57;100152.99;;;11.00;51.75
51053;BME280;37093;37.716;-122.060;2023-04-03T03:38:25;100157.03;;;10.42;54.05
51053;BME280;37093;37.716;-122.060;2023-04-03T03:40:54;100152.31;;;11.26;53.21
51053;BME280;37093;37.716;-122.060;2023-04-03T03:43:22;100157.89;;;10.76;54.16
51053;BME280;37093;37.716;-122.060;2023-04-03T03:45:52;100160.53;;;10.76;53.24
51053;BME280;37093;37.716;-122.060;2023-04-03T03:48:21;100157.32;;;10.87;54.80
51053;BME280;37093;37.716;-122.060;2023-04-03T03:50:50;100168.33;;;10.84;55.64
51053;BME280;37093;37.716;-122.060;2023-04-03T03:53:19;100170.32;;;10.99;55.35
51053;BME280;37093;37.716;-122.060;2023-04-03T03:55:47;100168.58;;;11.76;54.65
51053;BME280;37093;37.716;-122.060;2023-04-03T03:58:15;100165.52;;;11.35;54.11
51053;BME280;37093;37.716;-122.060;2023-04-03T04:00:44;100165.44;;;11.76;53.30
51053;BME280;37093;37.716;-122.060;2023-04-03T04:03:12;100173.89;;;10.73;55.57
51053;BME280;37093;37.716;-122.060;2023-04-03T04:05:41;100174.54;;;10.87;54.05
51053;BME280;37093;37.716;-122.060;2023-04-03T04:08:10;100175.48;;;11.07;55.36
51053;BME280;37093;37.716;-122.060;2023-04-03T04:10:38;100182.94;;;11.42;53.58
51053;BME280;37093;37.716;-122.060;2023-04-03T04:13:07;100186.44;;;10.82;53.47
51053;BME280;37093;37.716;-122.060;2023-04-03T04:15:36;100188.20;;;10.48;54.75
51053;BME280;37093;37.716;-122.060;2023-04-03T04:18:04;100188.86;;;10.36;54.88
51053;BME280;37093;37.716;-122.060;2023-04-03T04:20:33;100187.53;;;10.94;54.56
51053;BME280;37093;37.716;-122.060;2023-04-03T04:23:01;100191.95;;;11.33;52.94
51053;BME280;37093;37.716;-122.060;2023-04-03T04:25:29;100193.96;;;11.39;52.74
51053;BME280;37093;37.716;-122.060;2023-04-03T04:27:58;100194.00;;;11.71;51.00
51053;BME280;37093;37.716;-122.060;2023-04-03T04:30:27;100189.76;;;11.78;50.93
51053;BME280;37093;37.716;-122.060;2023-04-03T04:32:55;100186.25;;;11.83;49.99
51053;BME280;37093;37.716;-122.060;2023-04-03T04:35:24;100192.00;;;12.16;49.80
51053;BME280;37093;37.716;-122.060;2023-04-03T04:37:52;100191.55;;;12.87;47.83
51053;BME280;37093;37.716;-122.060;2023-04-03T04:40:21;100189.18;;;12.26;48.74
51053;BME280;37093;37.716;-122.060;2023-04-03T04:42:49;100188.23;;;12.35;48.13
51053;BME280;37093;37.716;-122.060;2023-04-03T04:45:18;100194.02;;;12.50;47.66
51053;BME280;37093;37.716;-122.060;2023-04-03T04:47:46;100192.00;;;12.64;47.27
51053;BME280;37093;37.716;-122.060;2023-04-03T04:50:15;100193.32;;;12.98;46.61
51053;BME280;37093;37.716;-122.060;2023-04-03T04:52:43;100199.39;;;13.04;46.31
51053;BME280;37093;37.716;-122.060;2023-04-03T04:55:12;100195.30;;;12.64;45.05
51053;BME280;37093;37.716;-122.060;2023-04-03T04:57:40;100196.94;;;12.33;45.71
51053;BME280;37093;37.716;-122.060;2023-04-03T05:00:10;100201.86;;;11.20;45.63
51053;BME280;37093;37.716;-122.060;2023-04-03T05:02:38;100200.12;;;10.65;46.21
51053;BME280;37093;37.716;-122.060;2023-04-03T05:05:08;100203.71;;;10.54;47.16
51053;BME280;37093;37.716;-122.060;2023-04-03T05:07:37;100211.52;;;10.63;46.49
51053;BME280;37093;37.716;-122.060;2023-04-03T05:10:08;100211.60;;;11.26;46.04
51053;BME280;37093;37.716;-122.060;2023-04-03T05:12:36;100213.78;;;11.09;46.21
51053;BME280;37093;37.716;-122.060;2023-04-03T05:15:06;100207.19;;;10.51;46.76
51053;BME280;37093;37.716;-122.060;2023-04-03T05:17:35;100208.12;;;10.41;47.34
51053;BME280;37093;37.716;-122.060;2023-04-03T05:20:04;100207.13;;;10.72;46.15
51053;BME280;37093;37.716;-122.060;2023-04-03T05:22:32;100205.90;;;11.29;45.52
51053;BME280;37093;37.716;-122.060;2023-04-03T05:25:01;100208.46;;;11.02;44.54
51053;BME280;37093;37.716;-122.060;2023-04-03T05:27:30;100208.84;;;11.66;43.70
51053;BME280;37093;37.716;-122.060;2023-04-03T05:29:58;100205.65;;;12.40;42.71
51053;BME280;37093;37.716;-122.060;2023-04-03T05:32:27;100206.15;;;10.99;44.69
51053;BME280;37093;37.716;-122.060;2023-04-03T05:34:55;100206.98;;;10.78;45.60
51053;BME280;37093;37.716;-122.060;2023-04-03T05:37:24;100196.06;;;10.35;45.73
51053;BME280;37093;37.716;-122.060;2023-04-03T05:39:53;100190.98;;;10.40;46.26
51053;BME280;37093;37.716;-122.060;2023-04-03T05:42:21;100188.86;;;10.04;47.30
51053;BME280;37093;37.716;-122.060;2023-04-03T05:44:50;100192.93;;;9.63;47.27
51053;BME280;37093;37.716;-122.060;2023-04-03T05:47:18;100190.53;;;9.44;48.67
51053;BME280;37093;37.716;-122.060;2023-04-03T05:49:47;100191.82;;;9.15;48.22
51053;BME280;37093;37.716;-122.060;2023-04-03T05:52:21;100190.57;;;9.61;47.89
51053;BME280;37093;37.716;-122.060;2023-04-03T05:54:50;100194.06;;;9.70;47.03
51053;BME280;37093;37.716;-122.060;2023-04-03T05:57:19;100191.17;;;9.39;47.35
51053;BME280;37093;37.716;-122.060;2023-04-03T05:59:48;100185.92;;;9.72;47.10
51053;BME280;37093;37.716;-122.060;2023-04-03T06:02:18;100190.05;;;9.10;47.86
51053;BME280;37093;37.716;-122.060;2023-04-03T06:04:46;100185.33;;;9.60;47.51
51053;BME280;37093;37.716;-122.060;2023-04-03T06:07:16;100183.46;;;9.37;46.96
51053;BME280;37093;37.716;-122.060;2023-04-03T06:09:46;100181.33;;;9.64;47.12
51053;BME280;37093;37.716;-122.060;2023-04-03T06:12:15;100181.39;;;9.67;46.83
51053;BME280;37093;37.716;-122.060;2023-04-03T06:14:44;100184.35;;;8.90;47.58
51053;BME280;37093;37.716;-122.060;2023-04-03T06:17:12;100184.63;;;9.19;47.63
51053;BME280;37093;37.716;-122.060;2023-04-03T06:19:41;100183.60;;;9.37;47.78
51053;BME280;37093;37.716;-122.060;2023-04-03T06:22:09;100181.98;;;8.99;48.02
51053;BME280;37093;37.716;-122.060;2023-04-03T06:24:39;100173.31;;;8.24;49.79
51053;BME280;37093;37.716;-122.060;2023-04-03T06:27:08;100179.29;;;8.50;49.96
51053;BME280;37093;37.716;-122.060;2023-04-03T06:29:38;100177.67;;;8.90;49.77
51053;BME280;37093;37.716;-122.060;2023-04-03T06:32:06;100175.67;;;9.01;49.79
51053;BME280;37093;37.716;-122.060;2023-04-03T06:34:35;100176.50;;;8.65;49.55
51053;BME280;37093;37.716;-122.060;2023-04-03T06:37:04;100179.27;;;9.19;48.13
51053;BME280;37093;37.716;-122.060;2023-04-03T06:39:32;100186.12;;;8.53;48.56
51053;BME280;37093;37.716;-122.060;2023-04-03T06:42:01;100176.60;;;9.42;47.32
51053;BME280;37093;37.716;-122.060;2023-04-03T06:44:29;100171.23;;;9.87;46.65
51053;BME280;37093;37.716;-122.060;2023-04-03T06:46:58;100169.48;;;10.21;44.86
51053;BME280;37093;37.716;-122.060;2023-04-03T06:49:26;100165.16;;;11.11;43.42
51053;BME280;37093;37.716;-122.060;2023-04-03T06:51:55;100161.43;;;10.73;42.99
51053;BME280;37093;37.716;-122.060;2023-04-03T06:54:24;100162.25;;;10.45;44.38
51053;BME280;37093;37.716;-122.060;2023-04-03T06:56:52;100163.82;;;10.17;46.01
51053;BME280;37093;37.716;-122.060;2023-04-03T06:59:21;100162.10;;;10.23;45.53
51053;BME280;37093;37.716;-122.060;2023-04-03T07:01:16;100159.13;;;8.89;45.73
51053;BME280;37093;37.716;-122.060;2023-04-03T07:03:45;100161.38;;;9.21;43.45
51053;BME280;37093;37.716;-122.060;2023-04-03T07:06:16;100163.19;;;10.69;41.18
51053;BME280;37093;37.716;-122.060;2023-04-03T07:08:45;100162.97;;;11.23;41.90
51053;BME280;37093;37.716;-122.060;2023-04-03T07:11:14;100163.73;;;10.93;42.14
51053;BME280;37093;37.716;-122.060;2023-04-03T07:13:42;100163.89;;;11.14;41.87
51053;BME280;37093;37.716;-122.060;2023-04-03T07:16:10;100163.94;;;10.81;42.93
51053;BME280;37093;37.716;-122.060;2023-04-03T07:18:39;100165.18;;;10.55;42.25
51053;BME280;37093;37.716;-122.060;2023-04-03T07:21:08;100165.51;;;10.12;42.70
51053;BME280;37093;37.716;-122.060;2023-04-03T07:23:36;100167.52;;;9.48;44.50
51053;BME280;37093;37.716;-122.060;2023-04-03T07:26:06;100168.41;;;8.39;45.45
51053;BME280;37093;37.716;-122.060;2023-04-03T07:28:34;100169.96;;;9.16;45.08
51053;BME280;37093;37.716;-122.060;2023-04-03T07:31:05;100169.52;;;9.06;44.19
51053;BME280;37093;37.716;-122.060;2023-04-03T07:33:34;100173.00;;;8.96;44.67
51053;BME280;37093;37.716;-122.060;2023-04-03T07:36:02;100173.47;;;8.59;46.39
51053;BME280;37093;37.716;-122.060;2023-04-03T07:38:31;100173.90;;;8.73;45.18
51053;BME280;37093;37.716;-122.060;2023-04-03T07:41:00;100181.91;;;8.58;45.57
51053;BME280;37093;37.716;-122.060;2023-04-03T07:43:29;100184.68;;;9.21;45.24
51053;BME280;37093;37.716;-122.060;2023-04-03T07:45:57;100187.50;;;9.31;44.10
51053;BME280;37093;37.716;-122.060;2023-04-03T07:48:26;100187.01;;;9.54;43.94
51053;BME280;37093;37.716;-122.060;2023-04-03T07:50:58;100190.87;;;10.13;43.02
51053;BME280;37093;37.716;-122.060;2023-04-03T07:53:26;100187.16;;;10.56;42.47
51053;BME280;37093;37.716;-122.060;2023-04-03T07:55:57;100182.39;;;9.68;43.83
51053;BME280;37093;37.716;-122.060;2023-04-03T07:58:26;100180.74;;;9.92;43.35
51053;BME280;37093;37.716;-122.060;2023-04-03T08:00:54;100183.52;;;10.06;43.31
51053;BME280;37093;37.716;-122.060;2023-04-03T08:03:23;100175.39;;;9.30;45.00
51053;BME280;37093;37.716;-122.060;2023-04-03T08:05:52;100174.05;;;9.18;46.17
51053;BME280;37093;37.716;-122.060;2023-04-03T08:08:21;100182.68;;;8.61;47.25
51053;BME280;37093;37.716;-122.060;2023-04-03T08:10:51;100179.42;;;9.50;45.81
51053;BME280;37093;37.716;-122.060;2023-04-03T08:13:21;100180.82;;;9.06;45.58
51053;BME280;37093;37.716;-122.060;2023-04-03T08:15:50;100184.30;;;8.92;45.65
51053;BME280;37093;37.716;-122.060;2023-04-03T08:18:18;100177.62;;;9.75;45.43
51053;BME280;37093;37.716;-122.060;2023-04-03T08:20:46;100181.32;;;9.23;44.47
51053;BME280;37093;37.716;-122.060;2023-04-03T08:23:15;100176.52;;;9.80;44.38
51053;BME280;37093;37.716;-122.060;2023-04-03T08:25:44;100183.02;;;9.13;45.70
51053;BME280;37093;37.716;-122.060;2023-04-03T08:28:13;100183.87;;;8.53;46.21
51053;BME280;37093;37.716;-122.060;2023-04-03T08:30:41;100194.51;;;8.52;46.83
51053;BME280;37093;37.716;-122.060;2023-04-03T08:33:11;100201.92;;;8.33;47.34
51053;BME280;37093;37.716;-122.060;2023-04-03T08:35:40;100201.34;;;8.70;45.83
51053;BME280;37093;37.716;-122.060;2023-04-03T08:38:09;100197.42;;;9.26;45.20
51053;BME280;37093;37.716;-122.060;2023-04-03T08:40:38;100197.13;;;8.14;47.24
51053;BME280;37093;37.716;-122.060;2023-04-03T08:43:24;100193.95;;;8.32;46.75
51053;BME280;37093;37.716;-122.060;2023-04-03T08:46:01;100196.84;;;8.05;47.78
51053;BME280;37093;37.716;-122.060;2023-04-03T08:48:34;100195.72;;;8.44;46.46
51053;BME280;37093;37.716;-122.060;2023-04-03T08:51:08;100195.90;;;8.87;44.80
51053;BME280;37093;37.716;-122.060;2023-04-03T08:53:43;100205.22;;;8.82;45.49
51053;BME280;37093;37.716;-122.060;2023-04-03T08:56:14;100206.54;;;8.52;45.44
51053;BME280;37093;37.716;-122.060;2023-04-03T08:58:49;100208.73;;;8.77;45.92
51053;BME280;37093;37.716;-122.060;2023-04-03T09:01:21;100210.39;;;9.43;43.62
51053;BME280;37093;37.716;-122.060;2023-04-03T09:03:51;100208.29;;;9.60;43.37
51053;BME280;37093;37.716;-122.060;2023-04-03T09:06:22;100210.56;;;9.20;43.38
51053;BME280;37093;37.716;-122.060;2023-04-03T09:09:04;100200.42;;;9.85;43.27
51053;BME280;37093;37.716;-122.060;2023-04-03T09:11:46;100198.14;;;10.08;42.09
51053;BME280;37093;37.716;-122.060;2023-04-03T09:14:22;100200.80;;;9.74;42.60
51053;BME280;37093;37.716;-122.060;2023-04-03T09:16:56;100206.99;;;10.10;42.45
51053;BME280;37093;37.716;-122.060;2023-04-03T09:19:35;100200.20;;;9.37;41.96
51053;BME280;37093;37.716;-122.060;2023-04-03T09:22:16;100206.26;;;9.00;41.98
51053;BME280;37093;37.716;-122.060;2023-04-03T09:24:47;100201.63;;;9.67;41.50
51053;BME280;37093;37.716;-122.060;2023-04-03T09:27:17;100197.53;;;9.99;41.33
51053;BME280;37093;37.716;-122.060;2023-04-03T09:29:46;100195.77;;;9.99;41.66
51053;BME280;37093;37.716;-122.060;2023-04-03T09:32:21;100194.75;;;9.29;41.83
51053;BME280;37093;37.716;-122.060;2023-04-03T09:34:55;100190.12;;;9.19;41.85
51053;BME280;37093;37.716;-122.060;2023-04-03T09:37:38;100196.75;;;9.21;41.69
51053;BME280;37093;37.716;-122.060;2023-04-03T09:40:29;100192.34;;;9.37;40.42
51053;BME280;37093;37.716;-122.060;2023-04-03T09:42:59;100185.42;;;9.68;40.58
51053;BME280;37093;37.716;-122.060;2023-04-03T09:45:28;100186.51;;;9.59;40.36
51053;BME280;37093;37.716;-122.060;2023-04-03T09:48:13;100182.64;;;9.11;40.63
51053;BME280;37093;37.716;-122.060;2023-04-03T09:50:56;100169.76;;;9.28;40.43
51053;BME280;37093;37.716;-122.060;2023-04-03T09:53:30;100165.53;;;8.96;40.48
51053;BME280;37093;37.716;-122.060;2023-04-03T09:55:59;100161.87;;;7.33;43.18
51053;BME280;37093;37.716;-122.060;2023-04-03T09:58:30;100171.08;;;7.25;43.20
51053;BME280;37093;37.716;-122.060;2023-04-03T10:01:00;100167.17;;;7.64;43.05
51053;BME280;37093;37.716;-122.060;2023-04-03T10:03:31;100165.38;;;7.33;43.87
51053;BME280;37093;37.716;-122.060;2023-04-03T10:06:00;100171.93;;;7.01;44.14
51053;BME280;37093;37.716;-122.060;2023-04-03T10:08:32;100162.66;;;7.39;42.24
51053;BME280;37093;37.716;-122.060;2023-04-03T10:11:18;100160.90;;;8.24;41.32
51053;BME280;37093;37.716;-122.060;2023-04-03T10:13:53;100164.34;;;8.31;41.24
51053;BME280;37093;37.716;-122.060;2023-04-03T10:16:28;100171.37;;;8.67;40.18
51053;BME280;37093;37.716;-122.060;2023-04-03T10:19:09;100178.33;;;8.47;39.95
51053;BME280;37093;37.716;-122.060;2023-04-03T10:21:45;100183.00;;;8.93;38.58
51053;BME280;37093;37.716;-122.060;2023-04-03T10:24:21;100190.28;;;8.48;39.63
51053;BME280;37093;37.716;-122.060;2023-04-03T10:26:57;100186.24;;;8.29;40.18
51053;BME280;37093;37.716;-122.060;2023-04-03T10:29:35;100179.50;;;7.45;41.76
51053;BME280;37093;37.716;-122.060;2023-04-03T10:32:19;100176.27;;;8.07;41.17
51053;BME280;37093;37.716;-122.060;2023-04-03T10:34:56;100175.02;;;7.89;41.83
51053;BME280;37093;37.716;-122.060;2023-04-03T10:37:37;100175.78;;;8.41;41.13
51053;BME280;37093;37.716;-122.060;2023-04-03T10:40:24;100167.98;;;7.72;41.94
51053;BME280;37093;37.716;-122.060;2023-04-03T10:43:04;100171.95;;;7.82;42.21
51053;BME280;37093;37.716;-122.060;2023-04-03T10:45:49;100160.38;;;7.55;42.47
51053;BME280;37093;37.716;-122.060;2023-04-03T10:48:31;100160.22;;;7.77;42.38
51053;BME280;37093;37.716;-122.060;2023-04-03T10:51:13;100161.45;;;8.11;41.57
51053;BME280;37093;37.716;-122.060;2023-04-03T10:53:48;100161.36;;;8.62;40.72
51053;BME280;37093;37.716;-122.060;2023-04-03T10:56:24;100155.96;;;8.33;40.98
51053;BME280;37093;37.716;-122.060;2023-04-03T10:59:00;100156.23;;;7.81;41.70
51053;BME280;37093;37.716;-122.060;2023-04-03T11:01:34;100151.52;;;7.69;41.29
51053;BME280;37093;37.716;-122.060;2023-04-03T11:04:05;100157.50;;;7.50;41.55
51053;BME280;37093;37.716;-122.060;2023-04-03T11:06:37;100167.74;;;8.78;40.23
51053;BME280;37093;37.716;-122.060;2023-04-03T11:09:15;100174.34;;;7.88;40.48
51053;BME280;37093;37.716;-122.060;2023-04-03T11:11:47;100164.05;;;8.99;39.54
51053;BME280;37093;37.716;-122.060;2023-04-03T11:14:24;100163.47;;;8.13;40.81
51053;BME280;37093;37.716;-122.060;2023-04-03T11:17:04;100160.70;;;9.33;39.79
51053;BME280;37093;37.716;-122.060;2023-04-03T11:19:38;100161.56;;;9.52;38.91
51053;BME280;37093;37.716;-122.060;2023-04-03T11:22:15;100164.84;;;9.90;38.70
51053;BME280;37093;37.716;-122.060;2023-04-03T11:24:54;100148.45;;;10.02;38.06
51053;BME280;37093;37.716;-122.060;2023-04-03T11:27:24;100160.86;;;8.68;39.69
51053;BME280;37093;37.716;-122.060;2023-04-03T11:29:54;100164.40;;;9.40;38.36
51053;BME280;37093;37.716;-122.060;2023-04-03T11:32:38;100163.31;;;9.59;37.80
51053;BME280;37093;37.716;-122.060;2023-04-03T11:35:13;100157.14;;;9.20;38.76
51053;BME280;37093;37.716;-122.060;2023-04-03T11:37:45;100156.49;;;9.16;39.00
51053;BME280;37093;37.716;-122.060;2023-04-03T11:40:24;100157.14;;;9.47;38.84
51053;BME280;37093;37.716;-122.060;2023-04-03T11:42:55;100157.29;;;9.06;38.86
51053;BME280;37093;37.716;-122.060;2023-04-03T11:45:37;100156.07;;;7.78;40.73
51053;BME280;37093;37.716;-122.060;2023-04-03T11:48:41;100160.75;;;8.35;40.92
51053;BME280;37093;37.716;-122.060;2023-04-03T11:51:40;100166.30;;;8.08;41.51
51053;BME280;37093;37.716;-122.060;2023-04-03T11:56:30;100173.65;;;8.12;42.17
51053;BME280;37093;37.716;-122.060;2023-04-03T11:59:24;100176.97;;;6.78;42.68
51053;BME280;37093;37.716;-122.060;2023-04-03T12:01:54;100174.89;;;8.00;41.15
51053;BME280;37093;37.716;-122.060;2023-04-03T12:04:24;100181.65;;;8.48;40.37
51053;BME280;37093;37.716;-122.060;2023-04-03T12:07:12;100180.03;;;7.59;40.38
51053;BME280;37093;37.716;-122.060;2023-04-03T12:09:59;100178.77;;;6.94;41.56
51053;BME280;37093;37.716;-122.060;2023-04-03T12:12:33;100182.01;;;7.81;40.29
51053;BME280;37093;37.716;-122.060;2023-04-03T12:16:21;100190.48;;;7.93;41.82
51053;BME280;37093;37.716;-122.060;2023-04-03T12:19:00;100195.98;;;7.94;40.57
51053;BME280;37093;37.716;-122.060;2023-04-03T12:22:33;100198.88;;;8.32;38.77
51053;BME280;37093;37.716;-122.060;2023-04-03T12:25:47;100195.92;;;7.91;39.46
51053;BME280;37093;37.716;-122.060;2023-04-03T12:28:16;100200.35;;;7.50;39.68
51053;BME280;37093;37.716;-122.060;2023-04-03T12:30:45;100200.67;;;7.93;38.57
51053;BME280;37093;37.716;-122.060;2023-04-03T12:33:24;100208.62;;;7.44;38.29
51053;BME280;37093;37.716;-122.060;2023-04-03T12:36:05;100203.70;;;7.48;38.19
51053;BME280;37093;37.716;-122.060;2023-04-03T12:38:56;100202.80;;;8.01;38.27
51053;BME280;37093;37.716;-122.060;2023-04-03T12:41:36;100199.83;;;8.00;38.80
51053;BME280;37093;37.716;-122.060;2023-04-03T12:44:23;100195.25;;;7.76;38.75
51053;BME280;37093;37.716;-122.060;2023-04-03T12:46:54;100198.40;;;8.65;37.83
51053;BME280;37093;37.716;-122.060;2023-04-03T12:49:35;100196.91;;;8.24;38.69
51053;BME280;37093;37.716;-122.060;2023-04-03T12:52:12;100200.34;;;8.66;37.95